sensor_id;sensor_type;location;lat;lon;timestamp;temperature;humidity
13231;DHT22;6681;53.254;10.398;2023-05-02T00:01:49;12.90;1.00
13231;DHT22;6681;53.254;10.398;2023-05-02T00:04:15;12.60;1.00
13231;DHT22;6681;53.254;10.398;2023-05-02T00:06:40;12.60;1.00
13231;DHT22;6681;53.254;10.398;2023-05-02T00:09:07;12.70;55.10
13231;DHT22;6681;53.254;10.398;2023-05-02T00:11:33;12.60;1.00
13231;DHT22;6681;53.254;10.398;2023-05-02T00:13:58;12.60;1.00
13231;DHT22;6681;53.254;10.398;2023-05-02T00:16:24;12.60;99.90
13231;DHT22;6681;53.254;10.398;2023-05-02T00:18:50;12.50;99.90
13231;DHT22;6681;53.254;10.398;2023-05-02T00:21:15;12.50;1.00
13231;DHT22;6681;53.254;10.398;2023-05-02T00:23:41;12.50;99.90
13231;DHT22;6681;53.254;10.398;2023-05-02T00:26:09;12.40;99.90
13231;DHT22;6681;53.254;10.398;2023-05-02T00:28:35;12.40;99.90
13231;DHT22;6681;53.254;10.398;2023-05-02T00:31:01;12.50;99.90
13231;DHT22;6681;53.254;10.398;2023-05-02T00:33:26;12.40;99.90
13231;DHT22;6681;53.254;10.398;2023-05-02T00:35:52;12.40;99.90
13231;DHT22;6681;53.254;10.398;2023-05-02T00:38:18;12.40;1.00
13231;DHT22;6681;53.254;10.398;2023-05-02T00:40:45;12.40;93.00
13231;DHT22;6681;53.254;10.398;2023-05-02T00:43:12;12.40;1.00
13231;DHT22;6681;53.254;10.398;2023-05-02T00:45:38;12.40;99.90
13231;DHT22;6681;53.254;10.398;2023-05-02T00:48:06;12.30;1.00
13231;DHT22;6681;53.254;10.398;2023-05-02T00:50:37;12.30;1.00
13231;DHT22;6681;53.254;10.398;2023-05-02T00:53:03;12.20;99.90
13231;DHT22;6681;53.254;10.398;2023-05-02T00:55:30;12.20;99.90
13231;DHT22;6681;53.254;10.398;2023-05-02T00:57:56;12.20;1.00
13231;DHT22;6681;53.254;10.398;2023-05-02T01:00:29;12.20;99.90
13231;DHT22;6681;53.254;10.398;2023-05-02T01:03:10;12.20;99.90
13231;DHT22;6681;53.254;10.398;2023-05-02T01:08:36;12.10;1.00
13231;DHT22;6681;53.254;10.398;2023-05-02T01:11:14;12.00;99.90
13231;DHT22;6681;53.254;10.398;2023-05-02T01:13:42;11.90;99.90
13231;DHT22;6681;53.254;10.398;2023-05-02T01:16:11;11.90;1.00
13231;DHT22;6681;53.254;10.398;2023-05-02T01:18:40;11.90;99.90
13231;DHT22;6681;53.254;10.398;2023-05-02T01:21:08;11.80;99.90
13231;DHT22;6681;53.254;10.398;2023-05-02T01:24:01;11.80;99.90
13231;DHT22;6681;53.254;10.398;2023-05-02T01:29:13;11.70;99.90
13231;DHT22;6681;53.254;10.398;2023-05-02T01:31:47;11.70;99.90
13231;DHT22;6681;53.254;10.398;2023-05-02T01:34:18;11.70;1.00
13231;DHT22;6681;53.254;10.398;2023-05-02T01:36:46;11.60;1.00
13231;DHT22;6681;53.254;10.398;2023-05-02T01:39:17;11.60;99.90
13231;DHT22;6681;53.254;10.398;2023-05-02T01:41:45;11.60;1.00
13231;DHT22;6681;53.254;10.398;2023-05-02T01:44:14;11.60;1.00
13231;DHT22;6681;53.254;10.398;2023-05-02T01:46:42;11.50;1.00
13231;DHT22;6681;53.254;10.398;2023-05-02T01:49:08;11.50;1.00
13231;DHT22;6681;53.254;10.398;2023-05-02T01:51:36;11.40;1.00
13231;DHT22;6681;53.254;10.398;2023-05-02T01:54:04;9.40;1.00
13231;DHT22;6681;53.254;10.398;2023-05-02T01:56:33;11.40;1.00
13231;DHT22;6681;53.254;10.398;2023-05-02T01:59:00;11.40;1.00
13231;DHT22;6681;53.254;10.398;2023-05-02T02:01:27;11.40;1.00
13231;DHT22;6681;53.254;10.398;2023-05-02T02:03:55;11.40;1.00
13231;DHT22;6681;53.254;10.398;2023-05-02T02:06:22;11.30;1.00
13231;DHT22;6681;53.254;10.398;2023-05-02T02:08:50;11.30;1.00
13231;DHT22;6681;53.254;10.398;2023-05-02T02:11:20;11.40;1.00
13231;DHT22;6681;53.254;10.398;2023-05-02T02:13:54;11.40;1.00
13231;DHT22;6681;53.254;10.398;2023-05-02T02:16:24;11.30;1.00
13231;DHT22;6681;53.254;10.398;2023-05-02T02:18:54;11.30;1.00
13231;DHT22;6681;53.254;10.398;2023-05-02T02:21:22;11.30;1.00
13231;DHT22;6681;53.254;10.398;2023-05-02T02:23:50;11.30;1.00
13231;DHT22;6681;53.254;10.398;2023-05-02T02:26:20;11.30;1.00
13231;DHT22;6681;53.254;10.398;2023-05-02T02:28:46;11.30;1.00
13231;DHT22;6681;53.254;10.398;2023-05-02T02:31:12;11.30;1.00
13231;DHT22;6681;53.254;10.398;2023-05-02T02:33:38;11.40;1.00
13231;DHT22;6681;53.254;10.398;2023-05-02T02:36:11;11.40;1.00
13231;DHT22;6681;53.254;10.398;2023-05-02T02:38:58;11.40;1.00
13231;DHT22;6681;53.254;10.398;2023-05-02T02:41:31;11.50;1.00
13231;DHT22;6681;53.254;10.398;2023-05-02T02:47:03;11.50;1.00
13231;DHT22;6681;53.254;10.398;2023-05-02T02:49:59;11.40;1.00
13231;DHT22;6681;53.254;10.398;2023-05-02T03:00:24;11.40;1.00
13231;DHT22;6681;53.254;10.398;2023-05-02T03:02:52;11.40;1.00
13231;DHT22;6681;53.254;10.398;2023-05-02T03:05:18;11.40;1.00
13231;DHT22;6681;53.254;10.398;2023-05-02T03:07:45;11.50;1.00
13231;DHT22;6681;53.254;10.398;2023-05-02T03:10:11;11.50;1.00
13231;DHT22;6681;53.254;10.398;2023-05-02T03:12:37;11.50;1.00
13231;DHT22;6681;53.254;10.398;2023-05-02T03:17:51;11.50;1.00
13231;DHT22;6681;53.254;10.398;2023-05-02T03:20:16;11.40;1.00
13231;DHT22;6681;53.254;10.398;2023-05-02T03:22:42;11.50;1.00
13231;DHT22;6681;53.254;10.398;2023-05-02T03:25:08;11.40;1.00
13231;DHT22;6681;53.254;10.398;2023-05-02T03:27:33;11.50;1.00
13231;DHT22;6681;53.254;10.398;2023-05-02T03:29:59;11.50;1.00
13231;DHT22;6681;53.254;10.398;2023-05-02T03:32:24;11.60;1.00
13231;DHT22;6681;53.254;10.398;2023-05-02T03:34:51;11.60;1.00
13231;DHT22;6681;53.254;10.398;2023-05-02T03:37:17;11.60;1.00
13231;DHT22;6681;53.254;10.398;2023-05-02T03:39:43;11.60;1.00
13231;DHT22;6681;53.254;10.398;2023-05-02T03:42:09;11.60;1.00
13231;DHT22;6681;53.254;10.398;2023-05-02T03:44:34;11.60;1.00
13231;DHT22;6681;53.254;10.398;2023-05-02T03:47:00;11.50;1.00
13231;DHT22;6681;53.254;10.398;2023-05-02T03:49:27;11.50;1.00
13231;DHT22;6681;53.254;10.398;2023-05-02T03:51:52;11.50;1.00
13231;DHT22;6681;53.254;10.398;2023-05-02T03:54:18;11.40;1.00
13231;DHT22;6681;53.254;10.398;2023-05-02T03:56:43;11.30;1.00
13231;DHT22;6681;53.254;10.398;2023-05-02T03:59:09;11.30;1.00
13231;DHT22;6681;53.254;10.398;2023-05-02T04:01:35;11.10;1.00
13231;DHT22;6681;53.254;10.398;2023-05-02T04:04:00;11.00;1.00
13231;DHT22;6681;53.254;10.398;2023-05-02T04:06:26;10.90;1.00
13231;DHT22;6681;53.254;10.398;2023-05-02T04:08:52;10.70;1.00
13231;DHT22;6681;53.254;10.398;2023-05-02T04:11:17;10.60;1.00
13231;DHT22;6681;53.254;10.398;2023-05-02T04:13:43;10.50;1.00
13231;DHT22;6681;53.254;10.398;2023-05-02T04:16:09;10.40;1.00
13231;DHT22;6681;53.254;10.398;2023-05-02T04:18:34;10.40;1.00
13231;DHT22;6681;53.254;10.398;2023-05-02T04:21:00;10.30;1.00
13231;DHT22;6681;53.254;10.398;2023-05-02T04:23:26;10.20;1.00
13231;DHT22;6681;53.254;10.398;2023-05-02T04:25:53;10.40;1.00
13231;DHT22;6681;53.254;10.398;2023-05-02T04:28:22;10.30;1.00
13231;DHT22;6681;53.254;10.398;2023-05-02T04:30:49;10.20;1.00
13231;DHT22;6681;53.254;10.398;2023-05-02T04:33:15;10.20;1.00
13231;DHT22;6681;53.254;10.398;2023-05-02T04:35:41;10.30;1.00
13231;DHT22;6681;53.254;10.398;2023-05-02T04:38:06;10.20;1.00
13231;DHT22;6681;53.254;10.398;2023-05-02T04:40:33;10.30;1.00
13231;DHT22;6681;53.254;10.398;2023-05-02T04:42:59;10.30;1.00
13231;DHT22;6681;53.254;10.398;2023-05-02T04:45:25;10.30;1.00
13231;DHT22;6681;53.254;10.398;2023-05-02T04:47:51;10.30;1.00
13231;DHT22;6681;53.254;10.398;2023-05-02T04:50:16;10.30;1.00
13231;DHT22;6681;53.254;10.398;2023-05-02T04:52:42;10.10;1.00
13231;DHT22;6681;53.254;10.398;2023-05-02T04:55:08;10.00;1.00
13231;DHT22;6681;53.254;10.398;2023-05-02T04:57:33;9.80;1.00
13231;DHT22;6681;53.254;10.398;2023-05-02T04:59:59;9.70;1.00
13231;DHT22;6681;53.254;10.398;2023-05-02T05:02:25;9.70;1.00
13231;DHT22;6681;53.254;10.398;2023-05-02T05:04:51;9.70;1.00
13231;DHT22;6681;53.254;10.398;2023-05-02T05:07:16;9.70;1.00
13231;DHT22;6681;53.254;10.398;2023-05-02T05:09:42;9.60;1.00
13231;DHT22;6681;53.254;10.398;2023-05-02T05:12:08;9.50;1.00
13231;DHT22;6681;53.254;10.398;2023-05-02T05:14:33;9.50;1.00
13231;DHT22;6681;53.254;10.398;2023-05-02T05:16:59;9.50;1.00
13231;DHT22;6681;53.254;10.398;2023-05-02T05:19:25;9.40;1.00
13231;DHT22;6681;53.254;10.398;2023-05-02T05:21:50;9.40;1.00
13231;DHT22;6681;53.254;10.398;2023-05-02T05:24:19;9.40;1.00
13231;DHT22;6681;53.254;10.398;2023-05-02T05:26:45;9.30;1.00
13231;DHT22;6681;53.254;10.398;2023-05-02T05:29:11;9.30;1.00
13231;DHT22;6681;53.254;10.398;2023-05-02T05:31:36;9.20;1.00
13231;DHT22;6681;53.254;10.398;2023-05-02T05:34:02;9.30;1.00
13231;DHT22;6681;53.254;10.398;2023-05-02T05:36:29;9.30;1.00
13231;DHT22;6681;53.254;10.398;2023-05-02T05:38:55;9.30;99.90
13231;DHT22;6681;53.254;10.398;2023-05-02T05:41:22;9.20;99.90
13231;DHT22;6681;53.254;10.398;2023-05-02T05:43:49;9.30;99.90
13231;DHT22;6681;53.254;10.398;2023-05-02T05:46:14;9.30;99.90
13231;DHT22;6681;53.254;10.398;2023-05-02T05:48:40;9.70;99.90
13231;DHT22;6681;53.254;10.398;2023-05-02T05:51:06;9.40;99.90
13231;DHT22;6681;53.254;10.398;2023-05-02T05:53:32;9.50;99.90
13231;DHT22;6681;53.254;10.398;2023-05-02T05:55:58;9.70;99.90
13231;DHT22;6681;53.254;10.398;2023-05-02T05:58:23;9.70;99.90
13231;DHT22;6681;53.254;10.398;2023-05-02T06:00:49;9.70;1.00
13231;DHT22;6681;53.254;10.398;2023-05-02T06:03:15;9.70;1.00
13231;DHT22;6681;53.254;10.398;2023-05-02T06:05:41;9.80;1.00
13231;DHT22;6681;53.254;10.398;2023-05-02T06:08:07;9.70;1.00
13231;DHT22;6681;53.254;10.398;2023-05-02T06:10:32;9.70;1.00
13231;DHT22;6681;53.254;10.398;2023-05-02T06:12:58;9.60;1.00
13231;DHT22;6681;53.254;10.398;2023-05-02T06:15:24;9.50;1.00
13231;DHT22;6681;53.254;10.398;2023-05-02T06:17:50;9.40;1.00
13231;DHT22;6681;53.254;10.398;2023-05-02T06:20:16;9.40;48.20
13231;DHT22;6681;53.254;10.398;2023-05-02T06:22:42;9.40;1.00
13231;DHT22;6681;53.254;10.398;2023-05-02T06:25:08;9.50;1.00
13231;DHT22;6681;53.254;10.398;2023-05-02T06:27:33;9.60;69.10
13231;DHT22;6681;53.254;10.398;2023-05-02T06:29:59;9.50;99.90
13231;DHT22;6681;53.254;10.398;2023-05-02T06:32:29;9.50;1.00
13231;DHT22;6681;53.254;10.398;2023-05-02T06:34:55;9.60;1.00
13231;DHT22;6681;53.254;10.398;2023-05-02T06:37:20;9.60;1.00
13231;DHT22;6681;53.254;10.398;2023-05-02T06:39:46;9.60;99.90
13231;DHT22;6681;53.254;10.398;2023-05-02T06:42:12;9.60;99.90
13231;DHT22;6681;53.254;10.398;2023-05-02T06:44:37;9.40;1.00
13231;DHT22;6681;53.254;10.398;2023-05-02T06:47:03;9.30;99.90
13231;DHT22;6681;53.254;10.398;2023-05-02T06:49:30;9.30;99.90
13231;DHT22;6681;53.254;10.398;2023-05-02T06:51:55;9.30;99.90
13231;DHT22;6681;53.254;10.398;2023-05-02T06:54:21;9.40;99.90
13231;DHT22;6681;53.254;10.398;2023-05-02T06:56:47;9.40;99.90
13231;DHT22;6681;53.254;10.398;2023-05-02T06:59:12;9.50;1.00
13231;DHT22;6681;53.254;10.398;2023-05-02T07:01:38;9.50;99.90
13231;DHT22;6681;53.254;10.398;2023-05-02T07:04:04;9.40;1.00
13231;DHT22;6681;53.254;10.398;2023-05-02T07:06:30;6.70;99.90
13231;DHT22;6681;53.254;10.398;2023-05-02T07:08:56;9.30;1.00
13231;DHT22;6681;53.254;10.398;2023-05-02T07:11:22;9.30;1.00
13231;DHT22;6681;53.254;10.398;2023-05-02T07:13:48;9.10;99.90
13231;DHT22;6681;53.254;10.398;2023-05-02T07:16:14;9.20;1.00
13231;DHT22;6681;53.254;10.398;2023-05-02T07:18:40;9.20;99.90
13231;DHT22;6681;53.254;10.398;2023-05-02T07:21:06;9.20;99.90
13231;DHT22;6681;53.254;10.398;2023-05-02T07:23:33;9.30;1.00
13231;DHT22;6681;53.254;10.398;2023-05-02T07:25:58;9.30;1.00
13231;DHT22;6681;53.254;10.398;2023-05-02T07:28:24;9.50;1.00
13231;DHT22;6681;53.254;10.398;2023-05-02T07:30:50;9.00;99.90
13231;DHT22;6681;53.254;10.398;2023-05-02T07:33:15;9.10;99.90
13231;DHT22;6681;53.254;10.398;2023-05-02T07:35:41;9.20;5.00
13231;DHT22;6681;53.254;10.398;2023-05-02T07:38:07;9.20;1.00
13231;DHT22;6681;53.254;10.398;2023-05-02T07:40:33;9.30;1.00
13231;DHT22;6681;53.254;10.398;2023-05-02T07:43:01;9.30;99.90
13231;DHT22;6681;53.254;10.398;2023-05-02T07:45:27;9.30;1.00
13231;DHT22;6681;53.254;10.398;2023-05-02T07:47:53;9.60;1.00
13231;DHT22;6681;53.254;10.398;2023-05-02T07:50:18;9.40;1.00
13231;DHT22;6681;53.254;10.398;2023-05-02T07:52:44;9.20;99.90
13231;DHT22;6681;53.254;10.398;2023-05-02T07:55:10;9.20;1.00
13231;DHT22;6681;53.254;10.398;2023-05-02T07:57:36;9.20;1.00
13231;DHT22;6681;53.254;10.398;2023-05-02T08:00:02;9.30;99.90
13231;DHT22;6681;53.254;10.398;2023-05-02T08:02:28;9.30;1.00
13231;DHT22;6681;53.254;10.398;2023-05-02T08:04:54;9.30;1.00
13231;DHT22;6681;53.254;10.398;2023-05-02T08:07:19;9.30;99.90
13231;DHT22;6681;53.254;10.398;2023-05-02T08:09:45;9.30;99.90
13231;DHT22;6681;53.254;10.398;2023-05-02T08:12:14;9.30;99.90
13231;DHT22;6681;53.254;10.398;2023-05-02T08:14:40;9.30;1.00
13231;DHT22;6681;53.254;10.398;2023-05-02T08:17:05;9.30;1.00
13231;DHT22;6681;53.254;10.398;2023-05-02T08:19:31;9.40;1.00
13231;DHT22;6681;53.254;10.398;2023-05-02T08:21:58;9.30;1.00
13231;DHT22;6681;53.254;10.398;2023-05-02T08:24:23;9.30;99.90
13231;DHT22;6681;53.254;10.398;2023-05-02T08:26:49;9.30;99.90
13231;DHT22;6681;53.254;10.398;2023-05-02T08:29:15;9.40;1.00
13231;DHT22;6681;53.254;10.398;2023-05-02T08:31:41;9.50;99.90
13231;DHT22;6681;53.254;10.398;2023-05-02T08:34:06;9.60;99.90
13231;DHT22;6681;53.254;10.398;2023-05-02T08:36:32;9.60;1.00
13231;DHT22;6681;53.254;10.398;2023-05-02T08:38:58;9.70;99.90
13231;DHT22;6681;53.254;10.398;2023-05-02T08:41:24;9.80;1.00
13231;DHT22;6681;53.254;10.398;2023-05-02T08:43:49;9.90;1.00
13231;DHT22;6681;53.254;10.398;2023-05-02T08:46:16;9.80;91.70
13231;DHT22;6681;53.254;10.398;2023-05-02T08:48:43;9.80;1.00
13231;DHT22;6681;53.254;10.398;2023-05-02T08:51:11;9.80;99.90
13231;DHT22;6681;53.254;10.398;2023-05-02T08:53:38;9.90;1.00
13231;DHT22;6681;53.254;10.398;2023-05-02T08:56:06;10.00;44.80
13231;DHT22;6681;53.254;10.398;2023-05-02T08:58:32;10.00;99.90
13231;DHT22;6681;53.254;10.398;2023-05-02T09:01:00;10.10;1.60
13231;DHT22;6681;53.254;10.398;2023-05-02T09:03:30;10.10;99.90
13231;DHT22;6681;53.254;10.398;2023-05-02T09:06:15;10.20;99.90
13231;DHT22;6681;53.254;10.398;2023-05-02T09:08:43;10.20;99.90
13231;DHT22;6681;53.254;10.398;2023-05-02T09:11:10;10.20;1.00
13231;DHT22;6681;53.254;10.398;2023-05-02T09:13:40;10.30;99.90
13231;DHT22;6681;53.254;10.398;2023-05-02T09:16:10;10.40;1.00
13231;DHT22;6681;53.254;10.398;2023-05-02T09:18:38;10.40;99.90
13231;DHT22;6681;53.254;10.398;2023-05-02T09:21:07;10.40;1.00
13231;DHT22;6681;53.254;10.398;2023-05-02T09:26:33;10.50;99.90
13231;DHT22;6681;53.254;10.398;2023-05-02T09:29:01;10.50;1.00
13231;DHT22;6681;53.254;10.398;2023-05-02T09:31:31;10.60;1.00
13231;DHT22;6681;53.254;10.398;2023-05-02T09:34:15;10.50;1.00
13231;DHT22;6681;53.254;10.398;2023-05-02T09:36:46;10.60;1.00
13231;DHT22;6681;53.254;10.398;2023-05-02T09:39:15;10.70;1.00
13231;DHT22;6681;53.254;10.398;2023-05-02T09:41:41;10.80;1.00
13231;DHT22;6681;53.254;10.398;2023-05-02T09:44:12;10.90;54.10
13231;DHT22;6681;53.254;10.398;2023-05-02T09:46:52;11.10;1.00
13231;DHT22;6681;53.254;10.398;2023-05-02T09:49:41;11.20;1.00
13231;DHT22;6681;53.254;10.398;2023-05-02T09:52:10;11.40;99.90
13231;DHT22;6681;53.254;10.398;2023-05-02T09:54:36;11.50;1.00
13231;DHT22;6681;53.254;10.398;2023-05-02T09:57:02;11.50;99.90
13231;DHT22;6681;53.254;10.398;2023-05-02T09:59:28;11.50;1.00
13231;DHT22;6681;53.254;10.398;2023-05-02T10:01:58;11.60;1.00
13231;DHT22;6681;53.254;10.398;2023-05-02T10:04:25;11.60;99.90
13231;DHT22;6681;53.254;10.398;2023-05-02T10:06:52;11.60;1.00
13231;DHT22;6681;53.254;10.398;2023-05-02T10:09:19;11.60;99.90
13231;DHT22;6681;53.254;10.398;2023-05-02T10:11:53;11.80;1.00
13231;DHT22;6681;53.254;10.398;2023-05-02T10:14:20;11.70;1.00
13231;DHT22;6681;53.254;10.398;2023-05-02T10:17:15;11.90;1.00
13231;DHT22;6681;53.254;10.398;2023-05-02T10:20:04;12.10;99.90
13231;DHT22;6681;53.254;10.398;2023-05-02T10:22:33;12.30;99.90
13231;DHT22;6681;53.254;10.398;2023-05-02T10:24:59;12.30;99.90
13231;DHT22;6681;53.254;10.398;2023-05-02T10:27:31;12.20;99.90
13231;DHT22;6681;53.254;10.398;2023-05-02T10:29:58;12.00;99.90
13231;DHT22;6681;53.254;10.398;2023-05-02T10:32:27;12.10;99.90
13231;DHT22;6681;53.254;10.398;2023-05-02T10:34:56;12.30;99.90
13231;DHT22;6681;53.254;10.398;2023-05-02T10:37:23;12.50;99.90
13231;DHT22;6681;53.254;10.398;2023-05-02T10:39:49;12.40;99.90
13231;DHT22;6681;53.254;10.398;2023-05-02T10:42:15;12.30;99.90
13231;DHT22;6681;53.254;10.398;2023-05-02T10:44:43;12.40;99.90
13231;DHT22;6681;53.254;10.398;2023-05-02T10:47:21;12.60;99.90
13231;DHT22;6681;53.254;10.398;2023-05-02T10:49:52;12.70;99.90
13231;DHT22;6681;53.254;10.398;2023-05-02T10:55:19;13.00;99.90
13231;DHT22;6681;53.254;10.398;2023-05-02T11:00:30;13.30;99.90
13231;DHT22;6681;53.254;10.398;2023-05-02T11:02:58;13.50;99.90
13231;DHT22;6681;53.254;10.398;2023-05-02T11:05:25;13.40;99.90
13231;DHT22;6681;53.254;10.398;2023-05-02T11:10:42;13.60;99.90
13231;DHT22;6681;53.254;10.398;2023-05-02T11:13:07;13.70;90.30
13231;DHT22;6681;53.254;10.398;2023-05-02T11:18:07;13.80;99.90
13231;DHT22;6681;53.254;10.398;2023-05-02T11:25:42;13.50;98.00
13231;DHT22;6681;53.254;10.398;2023-05-02T11:31:04;13.50;99.90
13231;DHT22;6681;53.254;10.398;2023-05-02T11:33:30;13.60;99.90
13231;DHT22;6681;53.254;10.398;2023-05-02T11:35:56;13.60;99.90
13231;DHT22;6681;53.254;10.398;2023-05-02T11:38:24;13.60;99.90
13231;DHT22;6681;53.254;10.398;2023-05-02T11:40:54;13.60;99.90
13231;DHT22;6681;53.254;10.398;2023-05-02T11:43:21;12.10;99.90
13231;DHT22;6681;53.254;10.398;2023-05-02T11:45:47;13.60;99.90
13231;DHT22;6681;53.254;10.398;2023-05-02T11:48:16;13.70;99.90
13231;DHT22;6681;53.254;10.398;2023-05-02T11:50:50;14.00;99.90
13231;DHT22;6681;53.254;10.398;2023-05-02T11:53:18;14.30;99.90
13231;DHT22;6681;53.254;10.398;2023-05-02T11:55:54;14.30;99.90
13231;DHT22;6681;53.254;10.398;2023-05-02T11:58:22;14.30;99.90
13231;DHT22;6681;53.254;10.398;2023-05-02T12:00:49;14.20;99.90
13231;DHT22;6681;53.254;10.398;2023-05-02T12:03:29;14.00;99.90
13231;DHT22;6681;53.254;10.398;2023-05-02T12:05:56;13.90;95.70
13231;DHT22;6681;53.254;10.398;2023-05-02T12:08:22;13.80;31.80
13231;DHT22;6681;53.254;10.398;2023-05-02T12:10:49;13.90;99.90
13231;DHT22;6681;53.254;10.398;2023-05-02T12:13:17;14.00;99.90
13231;DHT22;6681;53.254;10.398;2023-05-02T12:15:43;14.00;99.90
13231;DHT22;6681;53.254;10.398;2023-05-02T12:18:09;14.00;90.80
13231;DHT22;6681;53.254;10.398;2023-05-02T12:20:35;13.80;99.90
13231;DHT22;6681;53.254;10.398;2023-05-02T12:23:04;13.60;99.90
13231;DHT22;6681;53.254;10.398;2023-05-02T12:25:31;13.50;99.90
13231;DHT22;6681;53.254;10.398;2023-05-02T12:28:01;13.40;99.90
13231;DHT22;6681;53.254;10.398;2023-05-02T12:30:28;13.30;99.90
13231;DHT22;6681;53.254;10.398;2023-05-02T12:32:58;13.20;99.90
13231;DHT22;6681;53.254;10.398;2023-05-02T12:35:24;13.10;99.90
13231;DHT22;6681;53.254;10.398;2023-05-02T12:37:51;12.90;99.90
13231;DHT22;6681;53.254;10.398;2023-05-02T12:40:17;13.00;99.90
13231;DHT22;6681;53.254;10.398;2023-05-02T12:43:00;13.10;1.00
13231;DHT22;6681;53.254;10.398;2023-05-02T12:45:29;13.40;99.90
13231;DHT22;6681;53.254;10.398;2023-05-02T12:47:59;13.40;99.90
13231;DHT22;6681;53.254;10.398;2023-05-02T12:50:38;13.30;99.90
13231;DHT22;6681;53.254;10.398;2023-05-02T12:53:04;13.30;99.90
13231;DHT22;6681;53.254;10.398;2023-05-02T12:55:30;13.10;99.90
13231;DHT22;6681;53.254;10.398;2023-05-02T12:58:03;13.00;1.00
13231;DHT22;6681;53.254;10.398;2023-05-02T13:00:30;12.90;1.00
13231;DHT22;6681;53.254;10.398;2023-05-02T13:02:56;12.90;99.90
13231;DHT22;6681;53.254;10.398;2023-05-02T13:05:22;12.90;1.00
13231;DHT22;6681;53.254;10.398;2023-05-02T13:07:48;12.90;1.00
13231;DHT22;6681;53.254;10.398;2023-05-02T13:10:13;12.90;99.90
13231;DHT22;6681;53.254;10.398;2023-05-02T13:12:42;12.90;1.00
13231;DHT22;6681;53.254;10.398;2023-05-02T13:15:08;12.90;1.00
13231;DHT22;6681;53.254;10.398;2023-05-02T13:17:34;12.90;99.90
13231;DHT22;6681;53.254;10.398;2023-05-02T13:20:00;13.00;99.90
13231;DHT22;6681;53.254;10.398;2023-05-02T13:22:26;12.90;99.90
13231;DHT22;6681;53.254;10.398;2023-05-02T13:24:52;12.90;99.90
13231;DHT22;6681;53.254;10.398;2023-05-02T13:27:18;12.90;99.90
13231;DHT22;6681;53.254;10.398;2023-05-02T13:29:44;12.90;99.90
13231;DHT22;6681;53.254;10.398;2023-05-02T13:32:10;12.90;99.90
13231;DHT22;6681;53.254;10.398;2023-05-02T13:34:36;12.90;99.90
13231;DHT22;6681;53.254;10.398;2023-05-02T13:37:02;12.90;1.00
13231;DHT22;6681;53.254;10.398;2023-05-02T13:39:28;12.90;99.90
13231;DHT22;6681;53.254;10.398;2023-05-02T13:41:53;12.90;99.90
13231;DHT22;6681;53.254;10.398;2023-05-02T13:44:19;12.80;99.90
13231;DHT22;6681;53.254;10.398;2023-05-02T13:46:45;12.70;99.90
13231;DHT22;6681;53.254;10.398;2023-05-02T13:49:11;12.50;99.90
13231;DHT22;6681;53.254;10.398;2023-05-02T13:51:37;12.40;99.90
13231;DHT22;6681;53.254;10.398;2023-05-02T13:54:02;12.50;99.90
13231;DHT22;6681;53.254;10.398;2023-05-02T13:56:28;12.40;99.90
13231;DHT22;6681;53.254;10.398;2023-05-02T13:58:53;12.50;99.90
13231;DHT22;6681;53.254;10.398;2023-05-02T14:01:19;12.50;99.90
13231;DHT22;6681;53.254;10.398;2023-05-02T14:03:45;12.70;99.90
13231;DHT22;6681;53.254;10.398;2023-05-02T14:06:10;12.80;99.90
13231;DHT22;6681;53.254;10.398;2023-05-02T14:08:36;12.90;99.90
13231;DHT22;6681;53.254;10.398;2023-05-02T14:11:02;13.00;99.90
13231;DHT22;6681;53.254;10.398;2023-05-02T14:13:27;12.90;99.90
13231;DHT22;6681;53.254;10.398;2023-05-02T14:15:53;12.70;62.00
13231;DHT22;6681;53.254;10.398;2023-05-02T14:18:19;12.60;99.90
13231;DHT22;6681;53.254;10.398;2023-05-02T14:20:45;12.60;99.90
13231;DHT22;6681;53.254;10.398;2023-05-02T14:23:11;12.50;99.90
13231;DHT22;6681;53.254;10.398;2023-05-02T14:25:37;12.60;99.90
13231;DHT22;6681;53.254;10.398;2023-05-02T14:28:03;12.60;99.90
13231;DHT22;6681;53.254;10.398;2023-05-02T14:30:29;12.60;99.90
13231;DHT22;6681;53.254;10.398;2023-05-02T14:32:55;12.60;99.90
13231;DHT22;6681;53.254;10.398;2023-05-02T14:35:21;12.50;99.90
13231;DHT22;6681;53.254;10.398;2023-05-02T14:37:47;12.40;99.90
13231;DHT22;6681;53.254;10.398;2023-05-02T14:40:15;12.20;99.90
13231;DHT22;6681;53.254;10.398;2023-05-02T14:42:41;12.20;99.90
13231;DHT22;6681;53.254;10.398;2023-05-02T14:45:08;12.20;99.90
13231;DHT22;6681;53.254;10.398;2023-05-02T14:47:34;12.20;99.90
13231;DHT22;6681;53.254;10.398;2023-05-02T14:50:01;12.20;99.90
13231;DHT22;6681;53.254;10.398;2023-05-02T14:52:26;12.20;99.90
13231;DHT22;6681;53.254;10.398;2023-05-02T14:54:52;12.20;99.90
13231;DHT22;6681;53.254;10.398;2023-05-02T14:57:17;12.20;99.90
13231;DHT22;6681;53.254;10.398;2023-05-02T14:59:43;12.20;1.00
13231;DHT22;6681;53.254;10.398;2023-05-02T15:02:09;12.30;1.00
13231;DHT22;6681;53.254;10.398;2023-05-02T15:04:35;12.40;99.90
13231;DHT22;6681;53.254;10.398;2023-05-02T15:07:01;12.50;1.00
13231;DHT22;6681;53.254;10.398;2023-05-02T15:09:27;12.50;1.00
13231;DHT22;6681;53.254;10.398;2023-05-02T15:11:54;12.50;99.90
13231;DHT22;6681;53.254;10.398;2023-05-02T15:14:20;12.50;1.00
13231;DHT22;6681;53.254;10.398;2023-05-02T15:16:46;12.50;99.90
13231;DHT22;6681;53.254;10.398;2023-05-02T15:19:12;12.40;99.90
13231;DHT22;6681;53.254;10.398;2023-05-02T15:21:37;12.20;99.90
13231;DHT22;6681;53.254;10.398;2023-05-02T15:24:04;12.30;99.90
13231;DHT22;6681;53.254;10.398;2023-05-02T15:26:30;12.30;99.90
13231;DHT22;6681;53.254;10.398;2023-05-02T15:28:56;12.20;99.90
13231;DHT22;6681;53.254;10.398;2023-05-02T15:31:22;12.10;99.90
13231;DHT22;6681;53.254;10.398;2023-05-02T15:33:48;12.00;99.90
13231;DHT22;6681;53.254;10.398;2023-05-02T15:36:13;11.90;99.90
13231;DHT22;6681;53.254;10.398;2023-05-02T15:38:40;11.90;99.90
13231;DHT22;6681;53.254;10.398;2023-05-02T15:41:08;12.20;99.90
13231;DHT22;6681;53.254;10.398;2023-05-02T15:43:34;11.80;99.90
13231;DHT22;6681;53.254;10.398;2023-05-02T15:46:00;11.80;99.90
13231;DHT22;6681;53.254;10.398;2023-05-02T15:48:27;11.80;1.00
13231;DHT22;6681;53.254;10.398;2023-05-02T15:50:53;11.70;1.00
13231;DHT22;6681;53.254;10.398;2023-05-02T15:53:19;11.60;99.90
13231;DHT22;6681;53.254;10.398;2023-05-02T15:55:48;11.70;1.00
13231;DHT22;6681;53.254;10.398;2023-05-02T15:58:14;11.60;99.90
13231;DHT22;6681;53.254;10.398;2023-05-02T16:00:41;11.50;99.90
13231;DHT22;6681;53.254;10.398;2023-05-02T16:03:07;11.40;99.90
13231;DHT22;6681;53.254;10.398;2023-05-02T16:05:33;11.50;1.00
13231;DHT22;6681;53.254;10.398;2023-05-02T16:07:59;11.50;99.90
13231;DHT22;6681;53.254;10.398;2023-05-02T16:10:25;11.50;99.90
13231;DHT22;6681;53.254;10.398;2023-05-02T16:12:51;11.60;1.00
13231;DHT22;6681;53.254;10.398;2023-05-02T16:15:18;11.60;99.90
13231;DHT22;6681;53.254;10.398;2023-05-02T16:17:43;11.60;1.00
13231;DHT22;6681;53.254;10.398;2023-05-02T16:20:09;11.60;1.00
13231;DHT22;6681;53.254;10.398;2023-05-02T16:22:35;11.70;1.00
13231;DHT22;6681;53.254;10.398;2023-05-02T16:25:02;11.80;99.90